createdAt,value
2023-03-26T07:29:50.397Z,29.15
2023-03-26T07:32:29.071Z,29.13
2023-03-26T07:35:14.092Z,29.25
2023-03-26T07:37:51.230Z,29.18
2023-03-26T07:40:42.328Z,29.25
2023-03-26T07:43:20.175Z,29.42
2023-03-26T07:45:47.731Z,29.43
2023-03-26T07:48:18.868Z,29.58
2023-03-26T07:50:46.562Z,29.55
2023-03-26T07:53:14.090Z,29.70
2023-03-26T07:55:52.700Z,29.82
2023-03-26T07:58:47.432Z,29.93
2023-03-26T08:01:34.754Z,29.86
2023-03-26T08:04:28.457Z,30.03
2023-03-26T08:07:11.308Z,30.10
2023-03-26T08:09:57.022Z,30.19
2023-03-26T08:12:33.168Z,30.35
2023-03-26T08:15:12.576Z,30.34
2023-03-26T08:17:53.707Z,30.54
2023-03-26T08:20:41.756Z,30.64
2023-03-26T08:23:14.005Z,30.67
2023-03-26T08:26:17.704Z,30.92
2023-03-26T08:29:04.272Z,30.99
2023-03-26T08:31:39.347Z,31.08
2023-03-26T08:34:10.089Z,31.19
2023-03-26T08:36:37.281Z,31.34
2023-03-26T08:39:05.602Z,31.49
2023-03-26T08:41:56.944Z,31.70
2023-03-26T08:44:57.026Z,31.78
2023-03-26T08:47:49.081Z,31.88
2023-03-26T08:50:34.498Z,31.88
2023-03-26T08:53:13.462Z,31.82
2023-03-26T08:56:01.858Z,31.78
2023-03-26T08:58:47.270Z,31.77
2023-03-26T09:01:32.341Z,31.75
2023-03-26T09:04:18.813Z,31.82
2023-03-26T09:07:01.364Z,31.95
2023-03-26T09:10:01.902Z,32.06
2023-03-26T09:12:53.290Z,32.25
2023-03-26T09:15:48.278Z,32.42
2023-03-26T09:18:42.269Z,32.67
2023-03-26T09:21:56.051Z,33.28
2023-03-26T09:24:38.740Z,33.51
2023-03-26T09:27:37.601Z,33.53
2023-03-26T09:30:19.572Z,33.57
2023-03-26T09:33:10.050Z,33.59
2023-03-26T09:35:53.127Z,33.76
2023-03-26T09:38:44.753Z,34.94
2023-03-26T09:41:21.417Z,36.74
2023-03-26T09:44:14.386Z,38.47
2023-03-26T09:47:29.578Z,40.20
2023-03-26T09:50:35.813Z,41.57
2023-03-26T09:53:14.659Z,41.72
2023-03-26T09:56:19.336Z,40.86
2023-03-26T09:59:05.164Z,40.56
2023-03-26T10:01:38.016Z,40.42
2023-03-26T10:04:29.223Z,41.65
2023-03-26T10:07:30.756Z,43.00
2023-03-26T10:10:13.261Z,43.72
2023-03-26T10:12:46.372Z,44.47
2023-03-26T10:15:41.334Z,45.25
2023-03-26T10:18:31.913Z,46.03
2023-03-26T10:21:24.940Z,46.65
2023-03-26T10:24:24.305Z,46.19
2023-03-26T10:27:19.970Z,45.77
2023-03-26T10:30:26.330Z,45.72
2023-03-26T10:33:24.952Z,46.03
2023-03-26T10:36:10.574Z,47.01
2023-03-26T10:39:36.709Z,45.53
2023-03-26T10:42:29.665Z,43.62
2023-03-26T10:45:24.000Z,42.25
2023-03-26T10:48:03.141Z,41.35
2023-03-26T10:51:05.383Z,42.46
2023-03-26T10:53:48.957Z,42.78
2023-03-26T10:56:31.375Z,42.97
2023-03-26T10:59:08.480Z,43.11
2023-03-26T11:02:01.548Z,42.14
2023-03-26T11:04:40.488Z,41.62
2023-03-26T11:07:32.256Z,43.99
2023-03-26T11:10:12.235Z,45.83
2023-03-26T11:12:56.473Z,47.01
2023-03-26T11:15:42.877Z,46.59
2023-03-26T11:18:35.583Z,45.20
2023-03-26T11:21:18.461Z,44.09
2023-03-26T11:24:09.070Z,43.15
2023-03-26T11:26:46.996Z,44.10
2023-03-26T11:29:38.223Z,44.24
2023-03-26T11:32:24.775Z,45.05
2023-03-26T11:35:40.368Z,44.51
2023-03-26T11:38:33.184Z,43.08
2023-03-26T11:41:03.310Z,42.19
2023-03-26T11:43:36.005Z,41.22
2023-03-26T11:46:13.723Z,40.42
2023-03-26T11:48:44.987Z,39.54
2023-03-26T11:51:18.937Z,39.06
2023-03-26T11:53:46.984Z,38.56
2023-03-26T11:56:28.870Z,37.89
2023-03-26T11:59:21.206Z,37.44
2023-03-26T12:02:17.471Z,37.08
2023-03-26T12:04:51.080Z,36.64
2023-03-26T12:07:21.474Z,36.42
2023-03-26T12:09:53.625Z,36.20
2023-03-26T12:12:27.209Z,35.89
2023-03-26T12:14:55.141Z,35.63
2023-03-26T12:17:36.070Z,35.52
2023-03-26T12:20:27.952Z,35.29
2023-03-26T12:23:00.976Z,35.13
2023-03-26T12:25:32.185Z,34.89
2023-03-26T12:28:14.629Z,34.68
2023-03-26T12:31:05.776Z,34.48
2023-03-26T12:33:35.472Z,34.26
2023-03-26T12:36:25.831Z,34.03
2023-03-26T12:39:16.018Z,33.96
2023-03-26T12:44:44.554Z,33.95
2023-03-26T12:44:47.437Z,33.85
2023-03-26T12:47:56.195Z,33.72
2023-03-26T12:50:15.902Z,33.65
2023-03-26T12:53:19.439Z,33.57
2023-03-26T12:56:17.823Z,33.36
2023-03-26T12:58:55.408Z,33.39
2023-03-26T13:01:58.138Z,33.37
2023-03-26T13:05:02.301Z,33.32
2023-03-26T13:08:03.627Z,33.23
2023-03-26T13:10:39.873Z,33.21
2023-03-26T13:13:28.504Z,33.19
2023-03-26T13:16:03.267Z,33.13
2023-03-26T13:19:06.579Z,33.13
2023-03-26T13:21:43.890Z,33.04
2023-03-26T13:24:28.197Z,33.13
2023-03-26T13:27:07.338Z,33.19
2023-03-26T13:29:56.823Z,33.15
2023-03-26T13:32:39.593Z,33.23
2023-03-26T13:35:22.046Z,33.22
2023-03-26T13:38:22.894Z,33.12
2023-03-26T13:41:37.566Z,32.94
2023-03-26T13:44:15.035Z,33.10
2023-03-26T13:46:49.322Z,33.70
2023-03-26T13:49:42.149Z,33.90
2023-03-26T13:52:23.402Z,34.44
2023-03-26T13:55:02.248Z,34.67
2023-03-26T13:57:46.870Z,34.74
2023-03-26T14:00:23.446Z,36.11
2023-03-26T14:03:10.292Z,38.01
2023-03-26T14:05:47.432Z,39.80
2023-03-26T14:08:32.715Z,40.77
2023-03-26T14:11:11.222Z,41.54
2023-03-26T14:13:49.671Z,43.00
2023-03-26T14:16:47.236Z,44.00
2023-03-26T14:19:29.523Z,44.81
2023-03-26T14:22:44.336Z,44.93
2023-03-26T14:25:19.997Z,44.50
2023-03-26T14:27:49.874Z,44.86
2023-03-26T14:30:35.149Z,44.92
2023-03-26T14:33:12.978Z,45.44
2023-03-26T14:36:01.639Z,45.94
2023-03-26T14:38:52.908Z,46.20
2023-03-26T14:41:33.862Z,46.50
2023-03-26T14:44:30.265Z,46.15
2023-03-26T14:47:22.510Z,46.37
2023-03-26T14:50:26.832Z,46.86
2023-03-26T14:53:00.951Z,46.55
2023-03-26T14:56:01.833Z,46.86
2023-03-26T14:58:51.204Z,46.94
2023-03-26T15:01:22.746Z,47.01
2023-03-26T15:04:41.867Z,47.13
2023-03-26T15:07:46.519Z,46.94
2023-03-26T15:10:23.190Z,46.84
2023-03-26T15:13:06.538Z,46.69
2023-03-26T15:15:45.728Z,46.54
2023-03-26T15:18:46.095Z,46.12
2023-03-26T15:21:45.309Z,45.92
2023-03-26T15:24:56.718Z,45.57
2023-03-26T15:27:50.400Z,45.26
2023-03-26T15:30:53.468Z,45.09
2023-03-26T15:33:44.740Z,44.90
2023-03-26T15:36:42.564Z,44.30
2023-03-26T15:39:59.861Z,43.20
2023-03-26T15:42:38.098Z,41.74
2023-03-26T15:45:36.644Z,40.52
2023-03-26T15:48:30.806Z,39.24
2023-03-26T15:51:29.970Z,38.24
2023-03-26T15:54:20.944Z,37.51
2023-03-26T15:57:31.466Z,36.85
2023-03-26T16:00:20.033Z,36.25
2023-03-26T16:02:53.965Z,35.80
2023-03-26T16:05:24.440Z,35.54
2023-03-26T16:08:26.937Z,35.32
2023-03-26T16:11:02.782Z,35.06
2023-03-26T16:13:38.347Z,34.92
2023-03-26T16:16:07.108Z,34.82
2023-03-26T16:18:41.388Z,34.71
2023-03-26T16:21:31.672Z,34.60
2023-03-26T16:24:02.438Z,34.34
2023-03-26T16:26:44.780Z,34.17
2023-03-26T16:29:16.000Z,34.08
2023-03-26T16:32:11.231Z,34.00
2023-03-26T16:34:45.732Z,33.82
2023-03-26T16:37:37.786Z,33.71
2023-03-26T16:40:17.154Z,33.34
2023-03-26T16:42:50.181Z,33.10
2023-03-26T16:45:30.025Z,32.89
2023-03-26T16:48:31.024Z,32.62
2023-03-26T16:51:12.288Z,32.45
2023-03-26T16:53:46.264Z,32.39
2023-03-26T16:56:18.101Z,32.34
2023-03-26T16:58:56.372Z,32.28
2023-03-26T17:01:47.176Z,32.11
2023-03-26T17:04:30.747Z,31.99
2023-03-26T17:07:14.196Z,31.91
2023-03-26T17:10:02.386Z,31.74
2023-03-26T17:12:44.644Z,31.69
2023-03-26T17:15:22.853Z,31.58
2023-03-26T17:18:02.859Z,31.41
2023-03-26T17:20:56.122Z,31.27
2023-03-26T17:23:54.136Z,31.16
2023-03-26T17:26:26.822Z,31.09
2023-03-26T17:29:27.539Z,31.15
2023-03-26T17:32:09.323Z,31.15
2023-03-26T17:34:39.410Z,31.12
2023-03-26T17:37:11.935Z,31.08
2023-03-26T17:39:46.985Z,31.04
2023-03-26T17:42:13.948Z,30.97
2023-03-26T17:44:53.661Z,30.95
2023-03-26T17:47:26.449Z,30.88
2023-03-26T17:50:24.688Z,30.80
2023-03-26T17:52:54.347Z,30.71
2023-03-26T17:55:28.070Z,30.69
2023-03-26T17:57:58.606Z,30.78
2023-03-26T18:00:43.548Z,30.81
2023-03-26T18:03:17.702Z,30.81
2023-03-26T18:05:46.409Z,30.85
2023-03-26T18:08:47.247Z,30.86
2023-03-26T18:11:45.326Z,30.88
2023-03-26T18:14:31.084Z,30.88
2023-03-26T18:17:00.952Z,30.90
2023-03-26T18:19:29.099Z,31.01
2023-03-26T18:22:03.958Z,31.08
2023-03-26T18:24:39.227Z,31.13
2023-03-26T18:27:16.798Z,31.16
2023-03-26T18:30:01.821Z,31.08
2023-03-26T18:32:33.938Z,31.13
2023-03-26T18:35:43.796Z,31.08
2023-03-26T18:38:36.162Z,31.05
2023-03-26T18:41:08.237Z,31.03
2023-03-26T18:43:43.800Z,31.02
2023-03-26T18:46:14.914Z,31.05
2023-03-26T18:48:42.631Z,31.02
2023-03-26T18:51:10.793Z,31.00
2023-03-26T18:53:52.527Z,30.96
2023-03-26T18:56:28.721Z,30.99
2023-03-26T18:58:59.090Z,30.88
2023-03-26T19:01:32.042Z,30.91
2023-03-26T19:04:04.179Z,30.85
2023-03-26T19:06:38.545Z,30.76
2023-03-26T19:09:19.657Z,30.64
2023-03-26T19:11:57.443Z,30.55
2023-03-26T19:14:26.439Z,30.43
2023-03-26T19:16:59.787Z,30.33
2023-03-26T19:19:32.760Z,30.38
2023-03-26T19:22:00.269Z,30.29
2023-03-26T19:24:27.776Z,30.18
2023-03-26T19:26:54.998Z,30.07
2023-03-26T19:29:28.970Z,30.05
2023-03-26T19:32:06.643Z,30.13
2023-03-26T19:34:41.376Z,30.14
2023-03-26T19:37:27.123Z,30.12
2023-03-26T19:40:05.847Z,30.10
2023-03-26T19:42:42.850Z,30.17
2023-03-26T19:45:18.862Z,30.13
2023-03-26T19:47:52.227Z,30.17
2023-03-26T19:50:28.905Z,30.20
2023-03-26T19:53:25.699Z,30.20
2023-03-26T19:55:55.872Z,30.05
2023-03-26T19:58:23.108Z,30.18
2023-03-26T20:00:50.288Z,30.16
2023-03-26T20:03:27.600Z,30.19
2023-03-26T20:05:54.808Z,30.17
2023-03-26T20:08:27.495Z,30.18
2023-03-26T20:10:58.919Z,30.23
2023-03-26T20:13:26.519Z,30.22
2023-03-26T20:16:12.259Z,30.32
2023-03-26T20:18:39.330Z,30.25
2023-03-26T20:21:12.156Z,30.37
2023-03-26T20:23:41.023Z,30.39
2023-03-26T20:26:14.115Z,30.35
2023-03-26T20:28:48.142Z,30.39
2023-03-26T20:31:22.737Z,30.37
2023-03-26T20:33:52.142Z,30.47
2023-03-26T20:36:34.103Z,30.43
2023-03-26T20:39:08.433Z,30.37
2023-03-26T20:41:39.163Z,30.30
2023-03-26T20:44:15.522Z,30.28
2023-03-26T20:46:44.152Z,30.32
2023-03-26T20:49:11.862Z,30.22
2023-03-26T20:51:42.154Z,30.24
2023-03-26T20:54:16.182Z,30.16
2023-03-26T20:56:43.758Z,30.16
2023-03-26T20:59:12.148Z,30.15
2023-03-26T21:01:39.520Z,30.11
2023-03-26T21:04:07.194Z,30.03
2023-03-26T21:06:34.218Z,29.92
2023-03-26T21:09:01.603Z,29.74
2023-03-26T21:11:50.559Z,29.52
2023-03-26T21:14:28.288Z,29.50
2023-03-26T21:16:55.730Z,29.34
2023-03-26T21:19:23.071Z,29.36
2023-03-26T21:22:15.040Z,29.27
2023-03-26T21:25:03.771Z,29.08
2023-03-26T21:27:49.477Z,29.12
2023-03-26T21:30:17.172Z,29.11
2023-03-26T21:32:45.724Z,29.16
2023-03-26T21:35:15.131Z,29.04
2023-03-26T21:37:44.210Z,29.11
2023-03-26T21:40:14.926Z,29.06
2023-03-26T21:42:44.641Z,29.07
2023-03-26T21:45:12.493Z,29.23
2023-03-26T21:47:40.206Z,29.11
2023-03-26T21:53:29.743Z,29.02
2023-03-26T21:56:23.577Z,29.03
2023-03-26T21:59:12.550Z,29.07
2023-03-26T22:02:10.221Z,29.00
2023-03-26T22:04:45.803Z,28.81
2023-03-26T22:07:27.689Z,28.84
2023-03-26T22:09:54.992Z,28.83
2023-03-26T22:12:22.449Z,28.86
2023-03-26T22:14:49.577Z,28.85
2023-03-26T22:17:16.640Z,28.86
2023-03-26T22:19:43.815Z,28.82
2023-03-26T22:22:11.115Z,28.67
2023-03-26T22:24:38.716Z,28.70
2023-03-26T22:27:05.955Z,28.66
2023-03-26T22:29:33.039Z,28.63
2023-03-26T22:32:00.124Z,28.58
2023-03-26T22:34:27.113Z,28.56
2023-03-26T22:36:54.108Z,28.59
2023-03-26T22:39:21.851Z,28.57
2023-03-26T22:41:49.117Z,28.60
2023-03-26T22:44:26.318Z,28.54
2023-03-26T22:47:00.972Z,28.53
2023-03-26T22:49:40.777Z,28.55
2023-03-26T22:52:21.332Z,28.49
2023-03-26T22:55:01.059Z,28.47
2023-03-26T22:57:38.392Z,28.37
2023-03-26T23:00:13.107Z,28.21
2023-03-26T23:02:41.072Z,28.20
